EBA weather

Marina Di Campo Airport
Marina Di Campo, Tuscany, Italy

Public forecast

Using degrees Celsius for public forecast. Weather courtesy of forecast.io.

Closest aviation weather report (METAR) to Marina Di Campo Airport

Closest report is Bastia-Poretta Airport, 35.6 nm (66.0 km) WSW. Retrieved 2020/08/08 22:30 UTC (29 minutes ago):

LFKB 082230Z AUTO 22004KT CAVOK 24/13 Q1016 NOSIG

Closest aviation forecast (TAF) to Marina Di Campo Airport

Closest forecast is Bastia-Poretta Airport, 35.6 nm (66.0 km) WSW. Retrieved 2020/08/08 21:00 UTC (2 hours ago):

TAF LFKB 082000Z 0821/0921 22006KT CAVOK TX34/0910Z TN23/0903Z BECMG 0908/0910 03012KT BECMG 0918/0920 23005KT